15:53
Airports
History
Links
Donate
Help keep this website running!
PayPal
Bitcoin
This page is community maintained. The information is intended for PC simulator navigation or reference.
Always use approved charts for navigation.
09C
Austin Lake
Austin Lake (09C)
Portage, Michigan, United States (49002)
4
Lat/Lng:42° 9' 45.16" N / 85° 32' 45" W
42.162544 / -85.545833
Elevation:871'ft / 265mMSL
ID / ICAO:09C
Runways:1
Longest:05-23
Grass 1,046m / 3,432ft
Nearby Weather14:53 GMT 2018-01-18
Nearby weather at KAZO, Kalamazoo/battle Creek Intl located 5.0 nautical miles from 09C
Altimeter: 30.09
Visibility: 10.0 statute miles
Wind: 12 knots (from 220°)
Temp: -8°c / 18°f
Humidity: 72.8%

METAR: KAZO 181453Z 22012KT 10SM FEW015 M08/M12 A3009 RMK AO2 SLP203 T10781122 56002

(Powered by phpweather)
Nearby VORs <50NM
Nearby NDBs
Runway 05 / 23
Dimensions:1046.1 x 30.5m 3432' x 100'ft
Surface:Grass
Runway 05 [A]Runway 23 [B]
Heading:046°TH 226°TH
Lat:
Lng:
42° 9' 33.58"N
85° 33' 1.76"W
42° 9' 56.74"N
85° 32' 28.24"W
User Notes and Comments
42° 9' 45.16" N / 85° 32' 45" W
Distance To
Airport ID:
Nearby Airports
(R) Thrall Lake 3.5 NM
7MI3 SSE 154°
(C) Kalamazoo/battle Creek Intl 5.0 NM
KAZO ( WX ) N 356°
4 East Lake 5.5 NM
72M NE 34°
(R) Perry 5.6 NM
MI89 W 260°
(R) Whitcomb Field 6.5 NM
4MI4 W 279°
4 Larry D Boven 11.2 NM
2MI3 NNE 22°
(R) Shafter 11.6 NM
MI77 NE 34°
VFR Chart
Flight Planning at SkyVector.com